Time;durP1;ratioP1;P1;durP2;ratioP2;P2;SDS_P1;SDS_P2;PMS_P1;PMS_P2;Temp;Humidity;BMP_temperature;BMP_pressure;BME280_temperature;BME280_humidity;BME280_pressure;Samples;Min_cycle;Max_cycle;Signal;HPM_P1;HPM_P2
2021/06/12 00:00:14;;;;;;;12.00;5.15;;;;;;;;;;5074560;28;20187;-77
2021/06/12 00:02:40;;;;;;;6.38;5.50;;;;;;;;;;5073826;28;20333;-77
2021/06/12 00:05:08;;;;;;;8.65;5.65;;;;;;;;;;5074091;28;20667;-77
2021/06/12 00:07:35;;;;;;;8.40;5.57;;;;;;;;;;5074372;28;20214;-77
2021/06/12 00:10:04;;;;;;;6.10;5.30;;;;;;;;;;5075650;28;20240;-77
2021/06/12 00:12:31;;;;;;;5.93;5.43;;;;;;;;;;5074208;28;20194;-77
2021/06/12 00:14:57;;;;;;;6.82;5.65;;;;;;;;;;5075453;28;20667;-78
2021/06/12 00:17:23;;;;;;;6.22;5.03;;;;;;;;;;5074002;28;20252;-77
2021/06/12 00:19:49;;;;;;;6.40;5.22;;;;;;;;;;5075618;28;20681;-77
2021/06/12 00:22:15;;;;;;;5.95;5.25;;;;;;;;;;5074055;28;20207;-77
2021/06/12 00:24:43;;;;;;;10.20;5.28;;;;;;;;;;5075335;28;20577;-77
2021/06/12 00:27:09;;;;;;;5.40;4.90;;;;;;;;;;5074790;28;20277;-77
2021/06/12 00:29:35;;;;;;;8.13;4.97;;;;;;;;;;5074069;28;20209;-78
2021/06/12 00:32:02;;;;;;;6.65;5.07;;;;;;;;;;5075144;28;20215;-77
2021/06/12 00:34:28;;;;;;;9.75;4.70;;;;;;;;;;5074061;28;20514;-78
2021/06/12 00:36:54;;;;;;;5.45;4.95;;;;;;;;;;5073141;28;20199;-77
2021/06/12 00:39:20;;;;;;;8.05;5.10;;;;;;;;;;5075064;28;20206;-77
2021/06/12 00:41:48;;;;;;;6.28;5.43;;;;;;;;;;5073278;28;20226;-78
2021/06/12 00:44:14;;;;;;;5.43;5.03;;;;;;;;;;5073268;28;20675;-78
2021/06/12 00:46:40;;;;;;;5.20;4.80;;;;;;;;;;5074910;28;20574;-77
2021/06/12 00:49:07;;;;;;;5.68;5.28;;;;;;;;;;5073204;28;20655;-78
2021/06/12 00:51:33;;;;;;;6.63;5.07;;;;;;;;;;5073396;28;20210;-77
2021/06/12 00:53:59;;;;;;;6.40;5.20;;;;;;;;;;5072747;28;20249;-78
2021/06/12 00:56:26;;;;;;;5.88;4.90;;;;;;;;;;5073116;28;20683;-77
2021/06/12 00:58:53;;;;;;;5.53;5.03;;;;;;;;;;5072392;28;20218;-78
2021/06/12 01:01:20;;;;;;;5.28;4.88;;;;;;;;;;5073081;28;20675;-77
2021/06/12 01:03:47;;;;;;;5.68;5.07;;;;;;;;;;5072731;28;20594;-78
2021/06/12 01:06:14;;;;;;;5.32;5.03;;;;;;;;;;5074124;28;20210;-78
2021/06/12 01:08:41;;;;;;;5.32;4.93;;;;;;;;;;5074163;28;20265;-78
2021/06/12 01:11:08;;;;;;;5.57;5.07;;;;;;;;;;5073884;28;20249;-77
2021/06/12 01:13:38;;;;;;;5.78;5.28;;;;;;;;;;5072195;28;20561;-77
2021/06/12 01:16:11;;;;;;;5.40;4.88;;;;;;;;;;5072769;28;20591;-77
2021/06/12 01:18:39;;;;;;;5.60;5.20;;;;;;;;;;5072188;28;20195;-77
2021/06/12 01:21:07;;;;;;;8.25;4.70;;;;;;;;;;5074031;28;20206;-77
2021/06/12 01:24:03;;;;;;;5.50;5.03;;;;;;;;;;5072612;28;20229;-77
2021/06/12 01:26:33;;;;;;;5.15;4.72;;;;;;;;;;5072668;28;20292;-77
2021/06/12 01:29:03;;;;;;;6.55;5.05;;;;;;;;;;5074077;28;20237;-77
2021/06/12 01:31:33;;;;;;;6.20;5.35;;;;;;;;;;5074075;28;20527;-77
2021/06/12 01:34:01;;;;;;;5.10;4.70;;;;;;;;;;5073764;28;20746;-77
2021/06/12 01:36:28;;;;;;;6.68;4.80;;;;;;;;;;5073780;28;20178;-78
2021/06/12 01:38:55;;;;;;;5.35;4.85;;;;;;;;;;5073834;28;20210;-78
2021/06/12 01:41:22;;;;;;;5.65;5.10;;;;;;;;;;5073570;28;20253;-77
2021/06/12 01:43:49;;;;;;;6.10;5.50;;;;;;;;;;5072464;28;20202;-78
2021/06/12 01:46:16;;;;;;;6.35;5.20;;;;;;;;;;5072271;28;20198;-77
2021/06/12 01:48:45;;;;;;;8.38;5.68;;;;;;;;;;5072354;28;20295;-78
2021/06/12 01:51:11;;;;;;;5.85;5.30;;;;;;;;;;5073589;28;20225;-77
2021/06/12 01:53:39;;;;;;;5.50;5.10;;;;;;;;;;5073557;28;20217;-77
2021/06/12 01:56:06;;;;;;;7.80;5.38;;;;;;;;;;5073254;28;20678;-77
2021/06/12 01:58:33;;;;;;;12.48;6.20;;;;;;;;;;5072210;28;20213;-77
2021/06/12 02:01:00;;;;;;;6.40;5.40;;;;;;;;;;5071877;28;20194;-77
2021/06/12 02:03:27;;;;;;;6.05;5.55;;;;;;;;;;5071383;28;20235;-77
2021/06/12 02:05:55;;;;;;;6.28;5.68;;;;;;;;;;5072235;28;20221;-77
2021/06/12 02:08:21;;;;;;;6.10;5.40;;;;;;;;;;5071626;28;20291;-77
2021/06/12 02:10:48;;;;;;;9.88;5.80;;;;;;;;;;5072609;28;20264;-78
2021/06/12 02:13:16;;;;;;;6.40;5.70;;;;;;;;;;5071816;28;20241;-77
2021/06/12 02:15:42;;;;;;;5.60;5.15;;;;;;;;;;5071740;28;20662;-77
2021/06/12 02:18:09;;;;;;;6.15;5.53;;;;;;;;;;5088244;28;20296;-77
2021/06/12 02:20:36;;;;;;;7.00;5.63;;;;;;;;;;5072902;28;20238;-77
2021/06/12 02:23:06;;;;;;;9.52;5.32;;;;;;;;;;5071649;28;20198;-77
2021/06/12 02:25:33;;;;;;;8.63;6.00;;;;;;;;;;5071563;28;20690;-77
2021/06/12 02:28:01;;;;;;;6.88;6.28;;;;;;;;;;5071507;28;20242;-77
2021/06/12 02:30:28;;;;;;;5.90;5.30;;;;;;;;;;5071333;28;20225;-77
2021/06/12 02:32:57;;;;;;;10.43;5.90;;;;;;;;;;5088139;28;20658;-77
2021/06/12 02:35:23;;;;;;;6.13;5.72;;;;;;;;;;5072887;28;20206;-77
2021/06/12 02:37:49;;;;;;;7.88;6.20;;;;;;;;;;5071655;28;20213;-77
2021/06/12 02:40:17;;;;;;;13.38;5.68;;;;;;;;;;5071435;28;20194;-77
2021/06/12 02:42:43;;;;;;;6.78;5.63;;;;;;;;;;5072970;28;20178;-77
2021/06/12 02:45:10;;;;;;;6.00;5.40;;;;;;;;;;5070921;28;20611;-76
2021/06/12 02:47:40;;;;;;;7.53;5.30;;;;;;;;;;5071416;28;20238;-77
2021/06/12 02:50:07;;;;;;;13.45;5.55;;;;;;;;;;5072943;28;20238;-77
2021/06/12 02:52:34;;;;;;;7.30;5.53;;;;;;;;;;5071490;28;20241;-78
2021/06/12 02:55:01;;;;;;;6.10;5.50;;;;;;;;;;5072799;28;20183;-77
2021/06/12 02:57:29;;;;;;;5.75;5.35;;;;;;;;;;5071337;28;20554;-77
2021/06/12 02:59:57;;;;;;;5.88;5.38;;;;;;;;;;5072470;28;20237;-78
2021/06/12 03:02:24;;;;;;;7.72;5.57;;;;;;;;;;5072246;28;20234;-77
2021/06/12 03:04:50;;;;;;;6.80;5.78;;;;;;;;;;5071019;28;20670;-77
2021/06/12 03:07:17;;;;;;;6.00;5.40;;;;;;;;;;5071337;28;20203;-77
2021/06/12 03:09:44;;;;;;;7.75;5.63;;;;;;;;;;5072612;28;20543;-78
2021/06/12 03:12:11;;;;;;;5.95;5.45;;;;;;;;;;5072478;28;20217;-78
2021/06/12 03:14:40;;;;;;;5.47;5.07;;;;;;;;;;5088089;28;20252;-79
2021/06/12 03:17:07;;;;;;;5.53;5.07;;;;;;;;;;5070808;28;20264;-77
2021/06/12 03:19:33;;;;;;;6.55;5.25;;;;;;;;;;5072409;28;20206;-76
2021/06/12 03:22:01;;;;;;;5.70;5.20;;;;;;;;;;5073361;28;20238;-76
2021/06/12 03:24:28;;;;;;;6.10;5.50;;;;;;;;;;5074735;28;20203;-76
2021/06/12 03:26:58;;;;;;;5.50;5.10;;;;;;;;;;5076177;28;20233;-77
2021/06/12 03:29:24;;;;;;;5.68;5.18;;;;;;;;;;5075819;28;20455;-78
2021/06/12 03:31:52;;;;;;;5.60;5.20;;;;;;;;;;5076526;28;20203;-77
2021/06/12 03:34:19;;;;;;;10.75;5.68;;;;;;;;;;5074748;28;20225;-78
2021/06/12 03:36:46;;;;;;;5.60;5.13;;;;;;;;;;5074851;28;20190;-77
2021/06/12 03:39:12;;;;;;;5.57;5.05;;;;;;;;;;5074694;28;20203;-78
2021/06/12 03:41:38;;;;;;;5.38;5.07;;;;;;;;;;5074834;28;20553;-78
2021/06/12 03:44:05;;;;;;;7.57;5.60;;;;;;;;;;5076020;28;20183;-77
2021/06/12 03:46:33;;;;;;;6.15;5.00;;;;;;;;;;5074888;28;20581;-77
2021/06/12 03:49:00;;;;;;;5.28;4.88;;;;;;;;;;5075718;28;20254;-78
2021/06/12 03:51:27;;;;;;;6.15;5.55;;;;;;;;;;5076214;28;20233;-78
2021/06/12 03:53:54;;;;;;;5.82;5.43;;;;;;;;;;5075970;28;20214;-78
2021/06/12 03:56:21;;;;;;;7.43;5.80;;;;;;;;;;5075626;28;20632;-78
2021/06/12 03:58:49;;;;;;;8.60;5.72;;;;;;;;;;5074709;28;20593;-77
2021/06/12 04:01:16;;;;;;;7.53;6.00;;;;;;;;;;5074524;28;20187;-78
2021/06/12 04:03:43;;;;;;;7.10;6.40;;;;;;;;;;5075181;28;20257;-77
2021/06/12 04:06:11;;;;;;;7.20;6.50;;;;;;;;;;5073941;28;20207;-78
2021/06/12 04:08:38;;;;;;;6.15;5.72;;;;;;;;;;5074422;28;20238;-78
2021/06/12 04:11:04;;;;;;;6.53;6.03;;;;;;;;;;5073898;28;20195;-77
2021/06/12 04:13:30;;;;;;;9.50;6.38;;;;;;;;;;5074147;28;20195;-78
2021/06/12 04:15:56;;;;;;;6.97;6.30;;;;;;;;;;5073909;28;20191;-78
2021/06/12 04:18:22;;;;;;;11.40;7.10;;;;;;;;;;5091027;28;20705;-78
2021/06/12 04:20:49;;;;;;;6.83;6.23;;;;;;;;;;5074980;28;20246;-77
2021/06/12 04:23:16;;;;;;;7.50;6.20;;;;;;;;;;5073761;28;20202;-77
2021/06/12 04:25:43;;;;;;;7.25;6.40;;;;;;;;;;5073619;28;20601;-77
2021/06/12 04:28:09;;;;;;;7.07;6.43;;;;;;;;;;5073886;28;20230;-78
2021/06/12 04:30:35;;;;;;;6.57;6.05;;;;;;;;;;5090927;28;20201;-78
2021/06/12 04:33:02;;;;;;;7.20;6.30;;;;;;;;;;5073859;28;20203;-78
2021/06/12 04:35:28;;;;;;;6.47;5.88;;;;;;;;;;5075243;28;20213;-78
2021/06/12 04:37:58;;;;;;;6.95;6.15;;;;;;;;;;5090894;28;20562;-78
2021/06/12 04:40:26;;;;;;;17.37;6.63;;;;;;;;;;5073820;28;20247;-78
2021/06/12 04:42:52;;;;;;;6.90;6.07;;;;;;;;;;5073708;28;20194;-78
2021/06/12 04:45:18;;;;;;;7.30;6.70;;;;;;;;;;5073464;28;20245;-77
2021/06/12 04:47:44;;;;;;;8.00;6.30;;;;;;;;;;5073584;28;20202;-78
2021/06/12 04:50:11;;;;;;;13.25;6.93;;;;;;;;;;5073476;28;20252;-78
2021/06/12 04:52:37;;;;;;;8.00;7.20;;;;;;;;;;5074438;28;20234;-78
2021/06/12 04:55:04;;;;;;;7.85;7.25;;;;;;;;;;5073604;28;20206;-78
2021/06/12 04:57:31;;;;;;;7.60;6.85;;;;;;;;;;5073357;28;20191;-78
2021/06/12 04:59:58;;;;;;;8.18;7.18;;;;;;;;;;5074393;28;20213;-78
2021/06/12 05:02:24;;;;;;;9.18;7.78;;;;;;;;;;5072832;28;20767;-78
2021/06/12 05:04:50;;;;;;;8.75;7.32;;;;;;;;;;5073298;28;20252;-78
2021/06/12 05:07:16;;;;;;;8.20;7.55;;;;;;;;;;5073312;28;20654;-78
2021/06/12 05:09:42;;;;;;;7.75;7.05;;;;;;;;;;5072699;28;20752;-78
2021/06/12 05:12:09;;;;;;;10.02;7.55;;;;;;;;;;5072705;28;20670;-78
2021/06/12 05:14:37;;;;;;;11.65;6.78;;;;;;;;;;5072791;28;20221;-78
2021/06/12 05:17:06;;;;;;;7.20;6.50;;;;;;;;;;5072712;28;20601;-78
2021/06/12 05:19:32;;;;;;;6.88;6.00;;;;;;;;;;5074368;28;20951;-77
2021/06/12 05:21:59;;;;;;;7.50;6.90;;;;;;;;;;5073060;28;20221;-78
2021/06/12 05:24:25;;;;;;;8.10;7.35;;;;;;;;;;5073455;28;20226;-78
2021/06/12 05:26:51;;;;;;;7.28;6.60;;;;;;;;;;5072721;28;20230;-78
2021/06/12 05:29:18;;;;;;;8.05;6.35;;;;;;;;;;5072405;28;20250;-78
2021/06/12 05:31:45;;;;;;;7.07;6.47;;;;;;;;;;5074261;28;20179;-77
2021/06/12 05:34:11;;;;;;;7.20;6.57;;;;;;;;;;5072494;28;20202;-78
2021/06/12 05:36:37;;;;;;;6.82;6.28;;;;;;;;;;5073352;28;20238;-79
2021/06/12 05:39:04;;;;;;;6.68;6.18;;;;;;;;;;5089044;28;20221;-77
2021/06/12 05:41:31;;;;;;;7.30;6.60;;;;;;;;;;5072621;28;20558;-78
2021/06/12 05:43:57;;;;;;;9.43;5.90;;;;;;;;;;5072096;28;20724;-80
2021/06/12 05:46:23;;;;;;;7.28;6.53;;;;;;;;;;5072051;28;20947;-78
2021/06/12 05:48:50;;;;;;;7.47;6.77;;;;;;;;;;5071751;28;20250;-78
2021/06/12 05:51:16;;;;;;;11.07;6.15;;;;;;;;;;5071940;28;20206;-78
2021/06/12 05:53:43;;;;;;;7.70;5.63;;;;;;;;;;5071985;28;20198;-79
2021/06/12 05:56:09;;;;;;;8.23;6.20;;;;;;;;;;5072005;28;20191;-78
2021/06/12 05:58:35;;;;;;;14.68;5.38;;;;;;;;;;5072288;28;20558;-78
2021/06/12 06:01:01;;;;;;;6.18;5.68;;;;;;;;;;5073315;28;20237;-78
2021/06/12 06:03:27;;;;;;;6.25;5.75;;;;;;;;;;5073285;28;20307;-79
2021/06/12 06:05:55;;;;;;;6.18;5.60;;;;;;;;;;5071837;28;20739;-78
2021/06/12 06:08:21;;;;;;;6.57;5.80;;;;;;;;;;5073698;28;20249;-79
2021/06/12 06:10:47;;;;;;;6.75;5.93;;;;;;;;;;5073255;28;20217;-78
2021/06/12 06:13:13;;;;;;;6.13;5.50;;;;;;;;;;5071885;28;20552;-78
2021/06/12 06:15:39;;;;;;;5.68;5.18;;;;;;;;;;5073241;28;20214;-78
2021/06/12 06:18:05;;;;;;;6.00;4.70;;;;;;;;;;5071926;28;20206;-78
2021/06/12 06:20:32;;;;;;;4.90;4.50;;;;;;;;;;5071862;28;20523;-79
2021/06/12 06:22:59;;;;;;;4.80;4.50;;;;;;;;;;5073004;28;20238;-78
2021/06/12 06:25:25;;;;;;;5.78;5.10;;;;;;;;;;5073106;28;20179;-78
2021/06/12 06:27:51;;;;;;;5.18;4.68;;;;;;;;;;5071455;28;20222;-78
2021/06/12 06:30:18;;;;;;;5.90;4.60;;;;;;;;;;5072918;28;20230;-78
2021/06/12 06:32:44;;;;;;;4.65;4.07;;;;;;;;;;5073019;28;20179;-78
2021/06/12 06:35:14;;;;;;;5.95;4.88;;;;;;;;;;5071580;28;20205;-78
2021/06/12 06:37:40;;;;;;;5.03;4.53;;;;;;;;;;5071030;28;20248;-78
2021/06/12 06:40:08;;;;;;;4.72;4.22;;;;;;;;;;5071686;28;20232;-78
2021/06/12 06:42:35;;;;;;;6.65;4.80;;;;;;;;;;5071702;28;20206;-79
2021/06/12 06:45:02;;;;;;;4.90;4.45;;;;;;;;;;5073100;28;20699;-78
2021/06/12 06:47:28;;;;;;;6.57;4.47;;;;;;;;;;5071713;28;20194;-79
2021/06/12 06:49:54;;;;;;;4.55;4.22;;;;;;;;;;5072258;28;20257;-79
2021/06/12 06:52:20;;;;;;;4.60;4.07;;;;;;;;;;5071553;28;20641;-79
2021/06/12 06:54:47;;;;;;;6.00;3.85;;;;;;;;;;5072608;28;20205;-78
2021/06/12 06:57:14;;;;;;;5.05;4.40;;;;;;;;;;5073917;28;20219;-78
2021/06/12 06:59:40;;;;;;;5.03;4.10;;;;;;;;;;5075305;28;20271;-79
2021/06/12 07:02:07;;;;;;;8.77;4.82;;;;;;;;;;5076343;28;20778;-78
2021/06/12 07:04:36;;;;;;;9.10;5.05;;;;;;;;;;5076677;28;20249;-78
2021/06/12 07:07:04;;;;;;;4.68;4.10;;;;;;;;;;5076391;28;20210;-79
2021/06/12 07:09:30;;;;;;;7.32;4.70;;;;;;;;;;5075323;28;20670;-77
2021/06/12 07:11:58;;;;;;;5.13;4.78;;;;;;;;;;5075470;28;20217;-78
2021/06/12 07:14:26;;;;;;;5.43;4.90;;;;;;;;;;5091866;28;20203;-78
2021/06/12 07:16:52;;;;;;;4.85;4.45;;;;;;;;;;5076527;28;20209;-79
2021/06/12 07:19:20;;;;;;;6.03;4.15;;;;;;;;;;5076477;28;20237;-77
2021/06/12 07:21:46;;;;;;;7.20;3.72;;;;;;;;;;5075139;28;20609;-79
2021/06/12 07:24:12;;;;;;;7.20;3.80;;;;;;;;;;5075211;28;20570;-78
2021/06/12 07:26:39;;;;;;;4.20;3.72;;;;;;;;;;5074938;28;20268;-79
2021/06/12 07:29:05;;;;;;;4.53;4.13;;;;;;;;;;5076284;28;20226;-78
2021/06/12 07:31:32;;;;;;;8.88;4.00;;;;;;;;;;5091483;28;20203;-79
2021/06/12 07:33:59;;;;;;;5.82;3.65;;;;;;;;;;5074654;28;20203;-78
2021/06/12 07:36:27;;;;;;;6.47;4.40;;;;;;;;;;5074886;28;20716;-78
2021/06/12 07:38:53;;;;;;;5.88;3.75;;;;;;;;;;5076001;28;20183;-80
2021/06/12 07:41:19;;;;;;;7.57;3.90;;;;;;;;;;5074927;28;20221;-78
2021/06/12 07:43:45;;;;;;;3.72;3.20;;;;;;;;;;5074506;28;20202;-78
2021/06/12 07:46:11;;;;;;;4.40;3.55;;;;;;;;;;5075880;28;20214;-79
2021/06/12 07:48:39;;;;;;;5.45;3.85;;;;;;;;;;5075626;28;20242;-78
2021/06/12 07:51:06;;;;;;;4.05;3.60;;;;;;;;;;5075588;28;20190;-79
2021/06/12 07:53:33;;;;;;;5.43;3.70;;;;;;;;;;5074456;28;20244;-81
2021/06/12 07:55:59;;;;;;;3.80;3.50;;;;;;;;;;5074221;28;20199;-78
2021/06/12 07:58:25;;;;;;;4.55;3.60;;;;;;;;;;5075697;28;20213;-78
2021/06/12 08:00:51;;;;;;;15.55;3.72;;;;;;;;;;5074154;28;20252;-79
2021/06/12 08:03:17;;;;;;;3.88;3.67;;;;;;;;;;5074756;28;20324;-79
2021/06/12 08:05:45;;;;;;;4.50;3.65;;;;;;;;;;5074049;28;20214;-78
2021/06/12 08:08:11;;;;;;;6.30;3.35;;;;;;;;;;5072458;28;20198;-78
2021/06/12 08:10:37;;;;;;;4.25;3.17;;;;;;;;;;5074300;28;20237;-79
2021/06/12 08:13:03;;;;;;;2.78;2.58;;;;;;;;;;5072711;28;20225;-79
2021/06/12 08:15:30;;;;;;;7.78;2.80;;;;;;;;;;5074326;28;20213;-79
2021/06/12 08:17:56;;;;;;;2.60;2.40;;;;;;;;;;5074130;28;20210;-78
2021/06/12 08:20:24;;;;;;;3.83;2.75;;;;;;;;;;5073994;28;20602;-78
2021/06/12 08:22:51;;;;;;;2.38;2.28;;;;;;;;;;5072626;28;20205;-78
2021/06/12 08:25:18;;;;;;;5.15;2.63;;;;;;;;;;5074041;28;20562;-78
2021/06/12 08:27:44;;;;;;;3.10;2.35;;;;;;;;;;5072644;28;20690;-78
2021/06/12 08:30:11;;;;;;;3.38;2.40;;;;;;;;;;5072251;28;20214;-77
2021/06/12 08:32:38;;;;;;;2.90;2.65;;;;;;;;;;5072850;28;20190;-78
2021/06/12 08:35:05;;;;;;;3.03;2.70;;;;;;;;;;5072678;28;20241;-78
2021/06/12 08:37:31;;;;;;;5.13;2.42;;;;;;;;;;5074023;28;20670;-78
2021/06/12 08:39:58;;;;;;;2.97;2.50;;;;;;;;;;5072433;28;20194;-80
2021/06/12 08:42:25;;;;;;;2.63;2.40;;;;;;;;;;5072353;28;20202;-79
2021/06/12 08:44:52;;;;;;;4.35;2.38;;;;;;;;;;5072502;28;20202;-78
2021/06/12 08:47:19;;;;;;;2.65;2.47;;;;;;;;;;5073790;28;20244;-78
2021/06/12 08:49:45;;;;;;;5.68;2.53;;;;;;;;;;5073343;28;20277;-78
2021/06/12 08:52:11;;;;;;;2.90;2.67;;;;;;;;;;5072349;28;20205;-80
2021/06/12 08:54:41;;;;;;;6.55;2.70;;;;;;;;;;5072333;28;20905;-81
2021/06/12 08:57:09;;;;;;;2.50;2.22;;;;;;;;;;5073697;28;20564;-79
2021/06/12 08:59:36;;;;;;;5.85;2.63;;;;;;;;;;5072416;28;20187;-80
2021/06/12 09:02:02;;;;;;;3.83;2.33;;;;;;;;;;5069458;28;94356;-79
2021/06/12 09:04:29;;;;;;;3.22;2.50;;;;;;;;;;5059345;28;20562;-79
2021/06/12 09:07:14;;;;;;;6.20;2.40;;;;;;;;;;5061038;28;20207;-79
2021/06/12 09:09:40;;;;;;;2.42;2.10;;;;;;;;;;5072574;28;20558;-79
2021/06/12 09:12:08;;;;;;;3.03;2.25;;;;;;;;;;5072491;28;20202;-78
2021/06/12 09:14:34;;;;;;;3.38;2.40;;;;;;;;;;5073141;28;20199;-79
2021/06/12 09:17:01;;;;;;;2.40;2.30;;;;;;;;;;5072863;28;20203;-79
2021/06/12 09:19:27;;;;;;;2.38;2.28;;;;;;;;;;5073654;28;20658;-78
2021/06/12 09:21:57;;;;;;;7.30;2.60;;;;;;;;;;5074230;28;20671;-78
2021/06/12 09:24:25;;;;;;;1.92;1.92;;;;;;;;;;5073883;28;20631;-78
2021/06/12 09:26:52;;;;;;;3.53;2.40;;;;;;;;;;5073857;28;20253;-78
2021/06/12 09:29:20;;;;;;;6.35;2.40;;;;;;;;;;5073889;28;20226;-78
2021/06/12 09:31:47;;;;;;;2.75;2.40;;;;;;;;;;5072306;28;20206;-77
2021/06/12 09:34:16;;;;;;;2.60;2.13;;;;;;;;;;5072479;28;20241;-78
2021/06/12 09:36:43;;;;;;;2.33;2.08;;;;;;;;;;5073842;28;20644;-78
2021/06/12 09:39:11;;;;;;;2.65;2.42;;;;;;;;;;5073675;28;20207;-77
2021/06/12 09:41:37;;;;;;;3.13;2.38;;;;;;;;;;5073837;28;20218;-79
2021/06/12 09:44:04;;;;;;;3.88;2.55;;;;;;;;;;5073642;28;20245;-78
2021/06/12 09:46:32;;;;;;;3.30;2.40;;;;;;;;;;5072298;28;20224;-78
2021/06/12 09:48:58;;;;;;;6.15;2.20;;;;;;;;;;5071908;28;20203;-78
2021/06/12 09:51:24;;;;;;;1.83;1.73;;;;;;;;;;5072226;28;20230;-78
2021/06/12 09:53:51;;;;;;;3.35;2.50;;;;;;;;;;5072284;28;20229;-78
2021/06/12 09:56:17;;;;;;;2.15;1.95;;;;;;;;;;5073593;28;20187;-78
2021/06/12 09:58:44;;;;;;;3.97;2.20;;;;;;;;;;5073277;28;20253;-78
2021/06/12 10:01:11;;;;;;;4.20;1.95;;;;;;;;;;5071944;28;20214;-78
2021/06/12 10:03:38;;;;;;;2.80;1.85;;;;;;;;;;5072990;28;20254;-79
2021/06/12 10:06:14;;;;;;;4.57;1.92;;;;;;;;;;5072002;28;20206;-79
2021/06/12 10:08:41;;;;;;;2.08;1.60;;;;;;;;;;5073345;28;20257;-78
2021/06/12 10:11:07;;;;;;;2.45;1.55;;;;;;;;;;5072070;28;20293;-78
2021/06/12 10:13:34;;;;;;;3.15;1.60;;;;;;;;;;5072030;28;20293;-80
2021/06/12 10:16:00;;;;;;;2.50;1.33;;;;;;;;;;5071652;28;20601;-79
2021/06/12 10:18:27;;;;;;;3.90;1.35;;;;;;;;;;5071845;28;20268;-79
2021/06/12 10:20:55;;;;;;;1.33;1.30;;;;;;;;;;5072689;28;20215;-78
2021/06/12 10:23:21;;;;;;;4.05;1.38;;;;;;;;;;5071706;28;20725;-80
2021/06/12 10:25:47;;;;;;;1.20;1.20;;;;;;;;;;5071413;28;20218;-79
2021/06/12 10:28:14;;;;;;;2.28;1.50;;;;;;;;;;5071548;28;20202;-78
2021/06/12 10:30:40;;;;;;;1.85;1.75;;;;;;;;;;5071546;28;20242;-79
2021/06/12 10:33:07;;;;;;;1.80;1.50;;;;;;;;;;5071460;28;20226;-79
2021/06/12 10:35:33;;;;;;;3.33;1.50;;;;;;;;;;5071253;28;20202;-80
2021/06/12 10:38:02;;;;;;;1.20;1.20;;;;;;;;;;5072527;28;20214;-79
2021/06/12 10:40:35;;;;;;;1.02;0.90;;;;;;;;;;5071786;28;20584;-78
2021/06/12 10:43:09;;;;;;;1.70;1.15;;;;;;;;;;5071110;28;20194;-77
2021/06/12 10:45:35;;;;;;;8.50;1.33;;;;;;;;;;5072646;28;20246;-78
2021/06/12 10:48:01;;;;;;;1.65;1.23;;;;;;;;;;5073172;28;20206;-77
2021/06/12 10:50:35;;;;;;;1.27;0.90;;;;;;;;;;5070812;28;20690;-78
2021/06/12 10:53:15;;;;;;;1.35;1.10;;;;;;;;;;5072480;28;20214;-77
2021/06/12 10:55:43;;;;;;;1.10;1.10;;;;;;;;;;5072913;28;20214;-78
2021/06/12 10:58:24;;;;;;;3.22;1.08;;;;;;;;;;5071924;28;20218;-77
2021/06/12 11:01:08;;;;;;;0.90;0.90;;;;;;;;;;5087288;28;20194;-78
2021/06/12 11:03:46;;;;;;;3.25;1.98;;;;;;;;;;5072291;28;20234;-78
2021/06/12 11:06:35;;;;;;;2.45;1.20;;;;;;;;;;5071620;28;20210;-76
2021/06/12 11:09:20;;;;;;;1.10;1.05;;;;;;;;;;5071494;28;20532;-78
2021/06/12 11:11:48;;;;;;;4.43;1.00;;;;;;;;;;5062113;28;20249;-76
2021/06/12 11:14:27;;;;;;;1.20;1.10;;;;;;;;;;5072222;28;20233;-78
2021/06/12 11:17:12;;;;;;;2.83;0.90;;;;;;;;;;5071489;28;20187;-77
2021/06/12 11:19:40;;;;;;;0.90;0.90;;;;;;;;;;5071580;28;20606;-78
2021/06/12 11:22:26;;;;;;;0.88;0.88;;;;;;;;;;5071085;28;20207;-79
2021/06/12 11:24:55;;;;;;;0.70;0.70;;;;;;;;;;5072901;28;20684;-79
2021/06/12 11:27:23;;;;;;;1.02;0.75;;;;;;;;;;5070986;28;20226;-77
2021/06/12 11:30:08;;;;;;;0.60;0.60;;;;;;;;;;5072501;28;20250;-77
2021/06/12 11:32:34;;;;;;;1.05;0.70;;;;;;;;;;5071349;28;21002;-77
2021/06/12 11:35:00;;;;;;;0.70;0.70;;;;;;;;;;5070459;28;20552;-79
2021/06/12 11:37:28;;;;;;;0.95;0.60;;;;;;;;;;5072209;28;20229;-79
2021/06/12 11:39:55;;;;;;;0.80;0.80;;;;;;;;;;5072465;28;20238;-78
2021/06/12 11:42:23;;;;;;;1.13;1.00;;;;;;;;;;5071171;28;20198;-78
2021/06/12 11:44:49;;;;;;;1.10;0.80;;;;;;;;;;5074856;28;20206;-77
2021/06/12 11:47:25;;;;;;;1.10;1.10;;;;;;;;;;5074660;28;20214;-77
2021/06/12 11:49:51;;;;;;;0.85;0.85;;;;;;;;;;5063088;28;20242;-78
2021/06/12 11:52:17;;;;;;;0.60;0.60;;;;;;;;;;5074439;28;20268;-78
2021/06/12 11:54:44;;;;;;;2.15;0.80;;;;;;;;;;5075686;28;20231;-77
2021/06/12 11:57:10;;;;;;;0.80;0.80;;;;;;;;;;5074312;28;20252;-78
2021/06/12 11:59:37;;;;;;;0.90;0.90;;;;;;;;;;5074736;28;20655;-78
2021/06/12 12:02:06;;;;;;;0.90;0.80;;;;;;;;;;5075671;28;20266;-77
2021/06/12 12:04:33;;;;;;;0.90;0.90;;;;;;;;;;5067044;28;20238;-77
2021/06/12 12:06:59;;;;;;;1.85;0.70;;;;;;;;;;5055649;28;20694;-78
2021/06/12 12:09:27;;;;;;;0.60;0.60;;;;;;;;;;5054466;28;20203;-78
2021/06/12 12:11:54;;;;;;;1.17;0.52;;;;;;;;;;5055235;28;20211;-78
2021/06/12 12:14:28;;;;;;;0.60;0.60;;;;;;;;;;5055346;28;20235;-77
2021/06/12 12:16:55;;;;;;;0.60;0.60;;;;;;;;;;5054254;28;20229;-78
2021/06/12 12:19:22;;;;;;;0.50;0.50;;;;;;;;;;5054492;28;20660;-78
2021/06/12 12:21:49;;;;;;;2.58;0.50;;;;;;;;;;5055775;28;20223;-78
2021/06/12 12:24:15;;;;;;;5.78;1.13;;;;;;;;;;5055613;28;20214;-78
2021/06/12 12:26:51;;;;;;;0.90;0.38;;;;;;;;;;5053696;28;20226;-78
2021/06/12 12:29:18;;;;;;;0.50;0.50;;;;;;;;;;5055273;28;20698;-78
2021/06/12 12:31:45;;;;;;;0.75;0.50;;;;;;;;;;5053451;28;20695;-77
2021/06/12 12:34:13;;;;;;;2.35;0.70;;;;;;;;;;5053578;28;20230;-78
2021/06/12 12:36:43;;;;;;;0.60;0.60;;;;;;;;;;5053728;28;20203;-78
2021/06/12 12:39:10;;;;;;;3.78;0.60;;;;;;;;;;5053782;28;20222;-78
2021/06/12 12:41:36;;;;;;;1.65;0.70;;;;;;;;;;5055059;28;20682;-78
2021/06/12 12:44:07;;;;;;;1.08;0.40;;;;;;;;;;5053775;28;20226;-78
2021/06/12 12:46:33;;;;;;;0.82;0.50;;;;;;;;;;5053519;28;20195;-78
2021/06/12 12:48:59;;;;;;;0.68;0.35;;;;;;;;;;5055004;28;20211;-78
2021/06/12 12:51:27;;;;;;;0.50;0.50;;;;;;;;;;5053561;28;20820;-78
2021/06/12 12:53:53;;;;;;;1.90;0.52;;;;;;;;;;5054333;28;20187;-78
2021/06/12 12:56:19;;;;;;;0.40;0.40;;;;;;;;;;5052775;28;20226;-79
2021/06/12 12:58:48;;;;;;;4.72;0.60;;;;;;;;;;5054781;28;20250;-79
2021/06/12 13:01:14;;;;;;;0.63;0.57;;;;;;;;;;5054758;28;20234;-78
2021/06/12 13:03:41;;;;;;;0.65;0.65;;;;;;;;;;5054472;28;20223;-78
2021/06/12 13:06:22;;;;;;;5.97;0.82;;;;;;;;;;5053027;28;20208;-78
2021/06/12 13:09:04;;;;;;;0.50;0.50;;;;;;;;;;5052773;28;20207;-77
2021/06/12 13:11:39;;;;;;;0.52;0.52;;;;;;;;;;5036491;28;20262;-78
2021/06/12 13:14:06;;;;;;;3.88;0.95;;;;;;;;;;5052742;28;20191;-78
2021/06/12 13:16:32;;;;;;;1.08;0.70;;;;;;;;;;5053801;28;20210;-78
2021/06/12 13:19:12;;;;;;;0.85;0.80;;;;;;;;;;5052879;28;20199;-79
2021/06/12 13:21:45;;;;;;;2.35;0.60;;;;;;;;;;5054362;28;20207;-80
2021/06/12 13:24:13;;;;;;;0.60;0.60;;;;;;;;;;5052905;28;20595;-78
2021/06/12 13:26:39;;;;;;;0.90;0.80;;;;;;;;;;5052804;28;20219;-79
2021/06/12 13:29:16;;;;;;;0.52;0.52;;;;;;;;;;5052547;28;20664;-80
2021/06/12 13:31:42;;;;;;;0.70;0.70;;;;;;;;;;5054079;28;20294;-80
2021/06/12 13:34:21;;;;;;;0.70;0.70;;;;;;;;;;5052740;28;20211;-80
2021/06/12 13:36:50;;;;;;;2.78;0.85;;;;;;;;;;5053675;28;20243;-79
2021/06/12 13:39:28;;;;;;;2.70;0.95;;;;;;;;;;5053583;28;20245;-80
2021/06/12 13:42:04;;;;;;;0.80;0.80;;;;;;;;;;5054009;28;20570;-80
2021/06/12 13:44:31;;;;;;;1.05;0.90;;;;;;;;;;5053910;28;20246;-80
2021/06/12 13:46:57;;;;;;;3.83;0.95;;;;;;;;;;5052426;28;20191;-80
2021/06/12 13:49:23;;;;;;;2.15;0.88;;;;;;;;;;5052333;28;20207;-80
2021/06/12 13:51:49;;;;;;;0.75;0.75;;;;;;;;;;5053348;28;20262;-80
2021/06/12 13:54:15;;;;;;;0.88;0.88;;;;;;;;;;5052366;28;20207;-79
2021/06/12 13:56:43;;;;;;;1.30;0.80;;;;;;;;;;5053756;28;20180;-79
2021/06/12 13:59:10;;;;;;;0.80;0.80;;;;;;;;;;5053374;28;20595;-79
2021/06/12 14:01:36;;;;;;;1.00;1.00;;;;;;;;;;5053864;28;20175;-79
2021/06/12 14:04:03;;;;;;;0.98;0.98;;;;;;;;;;5051676;28;20703;-79
2021/06/12 14:06:30;;;;;;;2.15;1.30;;;;;;;;;;5051820;28;20579;-79
2021/06/12 14:08:56;;;;;;;1.17;1.00;;;;;;;;;;5053355;28;20210;-79
2021/06/12 14:11:22;;;;;;;1.05;1.05;;;;;;;;;;5051982;28;20231;-79
2021/06/12 14:13:50;;;;;;;1.50;1.40;;;;;;;;;;5053126;28;20180;-79
2021/06/12 14:16:16;;;;;;;1.95;1.40;;;;;;;;;;5053394;28;20254;-79
2021/06/12 14:18:42;;;;;;;4.70;1.30;;;;;;;;;;5053146;28;20210;-79
2021/06/12 14:21:08;;;;;;;3.47;1.30;;;;;;;;;;5051856;28;20204;-79
2021/06/12 14:23:35;;;;;;;1.92;1.15;;;;;;;;;;5051930;28;20214;-79
2021/06/12 14:26:03;;;;;;;1.60;1.50;;;;;;;;;;5052926;28;20238;-79
2021/06/12 14:28:30;;;;;;;3.75;1.42;;;;;;;;;;5051933;28;20235;-77
2021/06/12 14:30:57;;;;;;;1.30;1.20;;;;;;;;;;5053180;28;20262;-78
2021/06/12 14:33:24;;;;;;;1.30;1.30;;;;;;;;;;5053166;28;20179;-78
2021/06/12 14:35:50;;;;;;;4.20;1.30;;;;;;;;;;5053303;28;20243;-77
2021/06/12 14:38:16;;;;;;;1.05;1.05;;;;;;;;;;5052007;28;20206;-78
2021/06/12 14:40:43;;;;;;;1.48;1.38;;;;;;;;;;5053282;28;20234;-78
2021/06/12 14:43:09;;;;;;;2.50;1.35;;;;;;;;;;5052000;28;20226;-78
2021/06/12 14:45:35;;;;;;;5.90;1.92;;;;;;;;;;5051825;28;20196;-79